createdAt,value
2018-05-17T00:01:21.758Z,13.00
2018-05-17T00:03:48.018Z,13.10
2018-05-17T00:06:14.264Z,13.10
2018-05-17T00:08:40.526Z,13.10
2018-05-17T00:11:07.497Z,13.00
2018-05-17T00:13:33.876Z,13.00
2018-05-17T00:16:00.531Z,13.00
2018-05-17T00:18:26.773Z,13.00
2018-05-17T00:20:53.010Z,12.90
2018-05-17T00:23:19.258Z,12.90
2018-05-17T00:25:45.485Z,12.90
2018-05-17T00:28:11.730Z,12.70
2018-05-17T00:30:37.970Z,12.70
2018-05-17T00:33:04.240Z,12.70
2018-05-17T00:35:30.494Z,12.70
2018-05-17T00:37:56.717Z,12.50
2018-05-17T00:40:22.969Z,12.50
2018-05-17T00:42:50.200Z,12.40
2018-05-17T00:45:16.453Z,12.30
2018-05-17T00:47:42.730Z,12.30
2018-05-17T00:50:08.970Z,12.20
2018-05-17T00:52:35.351Z,12.10
2018-05-17T00:55:01.655Z,12.20
2018-05-17T00:57:27.949Z,12.00
2018-05-17T00:59:54.208Z,12.00
2018-05-17T01:02:20.535Z,11.90
2018-05-17T01:04:46.785Z,11.90
2018-05-17T01:07:13.152Z,11.80
2018-05-17T01:09:40.145Z,11.80
2018-05-17T01:12:06.373Z,11.80
2018-05-17T01:14:35.318Z,11.90
2018-05-17T01:17:01.612Z,11.80
2018-05-17T01:19:27.950Z,11.80
2018-05-17T01:21:54.194Z,11.80
2018-05-17T01:24:20.454Z,11.90
2018-05-17T01:26:46.828Z,11.90
2018-05-17T01:29:13.094Z,11.90
2018-05-17T01:31:39.347Z,11.90
2018-05-17T01:34:06.318Z,11.80
2018-05-17T01:36:32.583Z,11.80
2018-05-17T01:38:58.838Z,11.70
2018-05-17T01:41:25.270Z,11.70
2018-05-17T01:43:51.531Z,11.70
2018-05-17T01:46:18.627Z,11.40
2018-05-17T01:48:44.849Z,11.40
2018-05-17T01:51:11.221Z,11.40
2018-05-17T01:53:37.465Z,11.40
2018-05-17T01:56:04.021Z,11.40
2018-05-17T01:58:30.463Z,11.30
2018-05-17T02:00:56.793Z,11.20
2018-05-17T02:03:24.173Z,11.40
2018-05-17T02:05:50.497Z,11.30
2018-05-17T02:08:16.861Z,11.20
2018-05-17T02:10:43.129Z,11.10
2018-05-17T02:13:09.473Z,11.10
2018-05-17T02:15:35.736Z,11.00
2018-05-17T02:18:02.065Z,10.90
2018-05-17T02:20:28.343Z,10.90
2018-05-17T02:22:54.652Z,11.00
2018-05-17T02:25:20.902Z,10.90
2018-05-17T02:27:47.117Z,10.90
2018-05-17T02:30:14.133Z,10.90
2018-05-17T02:32:40.390Z,10.90
2018-05-17T02:35:06.696Z,10.90
2018-05-17T02:37:33.194Z,10.90
2018-05-17T02:39:59.427Z,11.00
2018-05-17T02:42:25.681Z,10.90
2018-05-17T02:44:52.035Z,10.70
2018-05-17T02:47:18.293Z,10.70
2018-05-17T02:49:44.529Z,10.70
2018-05-17T02:52:10.795Z,10.80
2018-05-17T02:54:37.072Z,10.70
2018-05-17T02:57:03.351Z,10.80
2018-05-17T02:59:29.632Z,10.70
2018-05-17T03:01:55.890Z,10.80
2018-05-17T03:04:22.120Z,10.70
2018-05-17T03:06:48.392Z,10.80
2018-05-17T03:09:14.628Z,10.70
2018-05-17T03:11:40.882Z,10.60
2018-05-17T03:14:07.278Z,10.50
2018-05-17T03:16:34.418Z,10.60
2018-05-17T03:19:00.658Z,10.60
2018-05-17T03:21:27.012Z,10.60
2018-05-17T03:23:53.253Z,10.50
2018-05-17T03:26:20.275Z,10.40
2018-05-17T03:28:47.241Z,10.40
2018-05-17T03:31:13.625Z,10.30
2018-05-17T03:33:39.858Z,10.40
2018-05-17T03:36:06.230Z,10.40
2018-05-17T03:38:33.197Z,10.50
2018-05-17T03:40:59.410Z,10.50
2018-05-17T03:43:25.657Z,10.50
2018-05-17T03:45:51.889Z,10.50
2018-05-17T03:48:18.159Z,10.50
2018-05-17T03:50:44.409Z,10.50
2018-05-17T03:53:10.650Z,10.50
2018-05-17T03:55:37.619Z,10.40
2018-05-17T03:58:03.869Z,10.40
2018-05-17T04:00:42.208Z,10.40
2018-05-17T04:03:20.678Z,10.50
2018-05-17T04:05:59.210Z,10.40
2018-05-17T04:08:25.453Z,10.30
2018-05-17T04:10:51.713Z,10.30
2018-05-17T04:13:18.775Z,10.40
2018-05-17T04:15:45.091Z,10.50
2018-05-17T04:18:11.331Z,10.50
2018-05-17T04:20:38.463Z,10.50
2018-05-17T04:23:06.314Z,10.50
2018-05-17T04:25:32.543Z,10.50
2018-05-17T04:27:58.811Z,10.50
2018-05-17T04:30:25.815Z,10.60
2018-05-17T04:32:59.726Z,10.70
2018-05-17T04:35:26.113Z,10.60
2018-05-17T04:37:52.356Z,10.60
2018-05-17T04:40:19.338Z,10.60
2018-05-17T04:42:45.570Z,10.60
2018-05-17T04:45:11.801Z,10.60
2018-05-17T04:47:38.045Z,10.50
2018-05-17T04:50:04.394Z,10.50
2018-05-17T04:52:30.648Z,10.50
2018-05-17T04:54:57.098Z,10.50
2018-05-17T04:57:23.322Z,10.50
2018-05-17T04:59:50.316Z,10.60
2018-05-17T05:02:16.621Z,10.60
2018-05-17T05:04:42.981Z,10.70
2018-05-17T05:07:09.308Z,10.70
2018-05-17T05:09:35.585Z,10.70
2018-05-17T05:12:01.839Z,10.60
2018-05-17T05:14:28.226Z,10.60
2018-05-17T05:16:54.725Z,10.70
2018-05-17T05:19:21.788Z,10.80
2018-05-17T05:21:48.035Z,10.80
2018-05-17T05:24:14.278Z,10.80
2018-05-17T05:26:40.678Z,10.80
2018-05-17T05:29:06.923Z,11.00
2018-05-17T05:31:33.235Z,11.00
2018-05-17T05:33:59.448Z,11.00
2018-05-17T05:36:25.681Z,10.90
2018-05-17T05:38:51.914Z,10.90
2018-05-17T05:41:18.877Z,11.00
2018-05-17T05:43:45.342Z,11.00
2018-05-17T05:46:11.578Z,11.00
2018-05-17T05:48:38.439Z,10.90
2018-05-17T05:51:04.798Z,10.80
2018-05-17T05:53:31.054Z,10.90
2018-05-17T05:55:57.279Z,10.80
2018-05-17T05:58:23.974Z,11.00
2018-05-17T06:00:50.226Z,10.90
2018-05-17T06:03:16.555Z,11.00
2018-05-17T06:05:42.786Z,11.00
2018-05-17T06:08:09.513Z,10.90
2018-05-17T06:10:35.786Z,11.10
2018-05-17T06:13:02.076Z,11.00
2018-05-17T06:15:28.349Z,11.00
2018-05-17T06:17:55.326Z,10.80
2018-05-17T06:20:21.742Z,10.80
2018-05-17T06:22:48.300Z,10.90
2018-05-17T06:25:14.629Z,10.80
2018-05-17T06:27:40.914Z,10.80
2018-05-17T06:30:07.182Z,10.90
2018-05-17T06:32:33.613Z,10.90
2018-05-17T06:35:00.183Z,11.10
2018-05-17T06:37:26.413Z,11.30
2018-05-17T06:39:52.655Z,11.30
2018-05-17T06:42:18.886Z,11.30
2018-05-17T06:44:45.973Z,11.50
2018-05-17T06:47:13.062Z,11.40
2018-05-17T06:49:39.340Z,11.50
2018-05-17T06:52:05.565Z,11.60
2018-05-17T06:54:32.144Z,11.70
2018-05-17T06:56:58.370Z,11.80
2018-05-17T06:59:25.354Z,11.90
2018-05-17T07:01:51.630Z,11.90
2018-05-17T07:04:18.682Z,11.80
2018-05-17T07:06:45.716Z,12.00
2018-05-17T07:09:12.150Z,12.00
2018-05-17T07:11:38.427Z,12.00
2018-05-17T07:14:04.734Z,12.00
2018-05-17T07:16:31.709Z,12.10
2018-05-17T07:18:58.172Z,12.00
2018-05-17T07:21:25.061Z,12.00
2018-05-17T07:23:52.305Z,11.90
2018-05-17T07:26:19.324Z,12.10
2018-05-17T07:28:45.578Z,12.10
2018-05-17T07:31:12.594Z,12.40
2018-05-17T07:33:39.109Z,12.30
2018-05-17T07:36:05.502Z,12.40
2018-05-17T07:38:31.740Z,12.50
2018-05-17T07:40:57.970Z,12.40
2018-05-17T07:43:24.242Z,12.40
2018-05-17T07:45:51.078Z,12.70
2018-05-17T07:48:17.309Z,12.80
2018-05-17T07:50:43.666Z,13.00
2018-05-17T07:53:10.185Z,13.10
2018-05-17T07:55:36.759Z,13.00
2018-05-17T07:58:02.878Z,13.10
2018-05-17T08:00:29.182Z,13.30
2018-05-17T08:02:55.410Z,13.30
2018-05-17T08:05:21.670Z,13.00
2018-05-17T08:07:47.930Z,12.90
2018-05-17T08:10:14.248Z,13.00
2018-05-17T08:12:40.477Z,13.20
2018-05-17T08:15:06.739Z,13.60
2018-05-17T08:17:33.714Z,14.10
2018-05-17T08:20:00.057Z,14.00
2018-05-17T08:22:26.353Z,14.40
2018-05-17T08:24:52.644Z,14.40
2018-05-17T08:27:18.906Z,14.30
2018-05-17T08:29:45.210Z,14.40
2018-05-17T08:32:11.458Z,14.20
2018-05-17T08:34:37.774Z,14.20
2018-05-17T08:37:04.039Z,13.80
2018-05-17T08:39:30.361Z,13.90
2018-05-17T08:41:56.598Z,13.90
2018-05-17T08:44:22.817Z,13.60
2018-05-17T08:46:49.095Z,13.60
2018-05-17T08:49:17.986Z,13.90
2018-05-17T08:51:44.234Z,13.90
2018-05-17T08:54:10.474Z,14.00
2018-05-17T08:56:36.786Z,14.10
2018-05-17T08:59:03.073Z,13.90
2018-05-17T09:01:29.463Z,13.50
2018-05-17T09:03:56.978Z,13.60
2018-05-17T09:06:23.998Z,13.90
2018-05-17T09:08:50.230Z,13.80
2018-05-17T09:11:16.482Z,13.90
2018-05-17T09:13:43.731Z,14.10
2018-05-17T09:16:10.829Z,14.00
2018-05-17T09:18:37.029Z,13.90
2018-05-17T09:21:03.429Z,14.30
2018-05-17T09:23:29.657Z,14.20
2018-05-17T09:25:56.014Z,14.10
2018-05-17T09:28:22.685Z,13.90
2018-05-17T09:30:48.942Z,13.80
2018-05-17T09:33:15.220Z,14.20
2018-05-17T09:35:41.610Z,14.20
2018-05-17T09:38:07.903Z,14.50
2018-05-17T09:40:34.939Z,14.80
2018-05-17T09:43:01.936Z,15.30
2018-05-17T09:45:28.846Z,15.30
2018-05-17T09:47:55.130Z,15.50
2018-05-17T09:50:21.346Z,15.50
2018-05-17T09:52:47.593Z,15.40
2018-05-17T09:55:13.822Z,15.30
2018-05-17T09:57:40.057Z,15.50
2018-05-17T10:00:06.333Z,15.30
2018-05-17T10:02:33.318Z,15.40
2018-05-17T10:04:59.530Z,15.40
2018-05-17T10:07:25.777Z,15.20
2018-05-17T10:09:52.003Z,14.80
2018-05-17T10:12:18.220Z,14.80
2018-05-17T10:14:44.541Z,15.00
2018-05-17T10:17:11.005Z,15.00
2018-05-17T10:19:38.071Z,15.40
2018-05-17T10:22:04.309Z,15.40
2018-05-17T10:24:31.426Z,15.20
2018-05-17T10:26:57.791Z,15.00
2018-05-17T10:29:24.156Z,15.10
2018-05-17T10:31:50.361Z,15.00
2018-05-17T10:34:16.787Z,15.30
2018-05-17T10:36:43.265Z,15.30
2018-05-17T10:39:09.524Z,15.20
2018-05-17T10:41:35.769Z,15.40
2018-05-17T10:44:02.034Z,15.60
2018-05-17T10:46:28.279Z,15.50
2018-05-17T10:48:55.305Z,15.20
2018-05-17T10:51:21.529Z,15.20
2018-05-17T10:53:47.763Z,15.40
2018-05-17T10:56:14.760Z,15.90
2018-05-17T10:58:40.998Z,15.90
2018-05-17T11:01:07.627Z,15.90
2018-05-17T11:03:33.866Z,15.90
2018-05-17T11:06:00.129Z,15.90
2018-05-17T11:08:26.937Z,16.10
2018-05-17T11:10:53.225Z,16.50
2018-05-17T11:13:19.461Z,16.80
2018-05-17T11:15:45.713Z,16.70
2018-05-17T11:18:11.949Z,16.40
2018-05-17T11:20:38.497Z,16.10
2018-05-17T11:23:04.725Z,15.90
2018-05-17T11:25:31.990Z,16.40
2018-05-17T11:27:58.229Z,16.30
2018-05-17T11:30:24.986Z,16.20
2018-05-17T11:32:51.216Z,16.10
2018-05-17T11:35:17.501Z,16.50
2018-05-17T11:37:43.774Z,16.60
2018-05-17T11:40:10.253Z,16.80
2018-05-17T11:42:37.529Z,17.00
2018-05-17T11:45:03.871Z,16.90
2018-05-17T11:47:30.217Z,17.30
2018-05-17T11:49:57.473Z,17.30
2018-05-17T11:52:23.739Z,17.30
2018-05-17T11:54:50.005Z,17.20
2018-05-17T11:57:16.618Z,17.10
2018-05-17T11:59:42.997Z,17.40
2018-05-17T12:02:09.249Z,17.30
2018-05-17T12:04:35.710Z,17.10
2018-05-17T12:07:02.015Z,17.40
2018-05-17T12:09:28.263Z,17.80
2018-05-17T12:11:54.850Z,17.80
2018-05-17T12:14:21.901Z,18.10
2018-05-17T12:16:48.996Z,18.10
2018-05-17T12:19:15.225Z,17.80
2018-05-17T12:21:42.976Z,18.10
2018-05-17T12:24:09.248Z,18.30
2018-05-17T12:26:35.549Z,18.50
2018-05-17T12:29:01.857Z,18.80
2018-05-17T12:31:28.381Z,18.90
2018-05-17T12:33:54.626Z,18.80
2018-05-17T12:36:35.714Z,18.80
2018-05-17T12:39:02.735Z,19.40
2018-05-17T12:41:29.917Z,19.40
2018-05-17T12:43:57.937Z,19.40
2018-05-17T12:46:24.378Z,19.40
2018-05-17T12:48:50.670Z,19.30
2018-05-17T12:51:17.676Z,19.30
2018-05-17T12:53:43.933Z,19.30
2018-05-17T12:56:10.891Z,19.40
2018-05-17T12:58:38.384Z,19.30
2018-05-17T13:01:04.561Z,19.10
2018-05-17T13:03:32.110Z,19.50
2018-05-17T13:05:58.373Z,19.40
2018-05-17T13:08:25.334Z,19.70
2018-05-17T13:10:51.542Z,19.70
2018-05-17T13:13:18.533Z,19.60
2018-05-17T13:15:44.790Z,19.60
2018-05-17T13:18:11.045Z,19.70
2018-05-17T13:20:37.702Z,20.10
2018-05-17T13:23:03.957Z,20.40
2018-05-17T13:25:30.199Z,20.70
2018-05-17T13:27:56.529Z,20.50
2018-05-17T13:30:22.889Z,20.80
2018-05-17T13:32:49.230Z,21.20
2018-05-17T13:35:15.666Z,21.50
2018-05-17T13:37:42.846Z,22.00
2018-05-17T13:40:09.830Z,21.80
2018-05-17T13:42:36.067Z,21.80
2018-05-17T13:45:02.640Z,21.90
2018-05-17T13:47:29.738Z,22.50
2018-05-17T13:49:57.047Z,22.40
2018-05-17T13:52:23.346Z,23.70
2018-05-17T13:54:50.386Z,26.00
2018-05-17T13:57:16.782Z,25.90
2018-05-17T13:59:43.849Z,27.10
2018-05-17T14:02:10.081Z,27.00
2018-05-17T14:04:37.057Z,28.70
2018-05-17T14:07:03.297Z,28.70
2018-05-17T14:09:29.833Z,29.50
2018-05-17T14:11:56.101Z,29.20
2018-05-17T14:14:23.214Z,29.50
2018-05-17T14:16:49.439Z,29.50
2018-05-17T14:19:15.695Z,29.80
2018-05-17T14:21:41.946Z,29.50
2018-05-17T14:24:08.960Z,29.70
2018-05-17T14:26:35.449Z,29.80
2018-05-17T14:29:02.844Z,30.20
2018-05-17T14:31:30.297Z,27.90
2018-05-17T14:33:56.533Z,27.90
2018-05-17T14:36:23.005Z,27.80
2018-05-17T14:38:49.317Z,28.50
2018-05-17T14:41:16.285Z,30.00
2018-05-17T14:43:43.241Z,30.10
2018-05-17T14:46:11.220Z,30.80
2018-05-17T14:48:37.881Z,30.70
2018-05-17T14:51:04.139Z,31.30
2018-05-17T14:53:30.593Z,31.80
2018-05-17T14:55:56.855Z,32.60
2018-05-17T14:58:24.007Z,31.30
2018-05-17T15:00:51.005Z,30.80
2018-05-17T15:03:17.425Z,30.80
2018-05-17T15:05:43.670Z,30.80
2018-05-17T15:08:09.894Z,31.60
2018-05-17T15:10:36.322Z,32.60
2018-05-17T15:13:02.577Z,32.90
2018-05-17T15:15:29.057Z,31.80
2018-05-17T15:17:55.290Z,31.80
2018-05-17T15:20:22.278Z,31.20
2018-05-17T15:25:21.250Z,31.80
2018-05-17T15:27:47.481Z,32.00
2018-05-17T15:30:13.744Z,32.10
2018-05-17T15:32:40.316Z,31.60
2018-05-17T15:35:06.566Z,32.60
2018-05-17T15:37:34.044Z,32.20
2018-05-17T15:40:00.297Z,31.70
2018-05-17T15:42:26.552Z,31.00
2018-05-17T15:44:53.806Z,30.60
2018-05-17T15:47:20.085Z,31.50
2018-05-17T15:49:46.321Z,32.40
2018-05-17T15:52:12.862Z,32.20
2018-05-17T15:54:39.104Z,32.70
2018-05-17T15:57:05.861Z,32.60
2018-05-17T15:59:32.119Z,32.00
2018-05-17T16:01:58.368Z,32.50
2018-05-17T16:04:24.634Z,32.90
2018-05-17T16:06:50.890Z,32.50
2018-05-17T16:09:17.360Z,31.10
2018-05-17T16:11:43.636Z,30.90
2018-05-17T16:14:09.913Z,30.30
2018-05-17T16:16:36.226Z,29.50
2018-05-17T16:19:02.446Z,28.90
2018-05-17T16:21:29.035Z,30.40
2018-05-17T16:23:55.308Z,30.50
2018-05-17T16:26:21.558Z,29.60
2018-05-17T16:28:47.805Z,29.40
2018-05-17T16:31:14.112Z,29.10
2018-05-17T16:33:40.364Z,29.00
2018-05-17T16:36:07.146Z,28.00
2018-05-17T16:38:34.420Z,28.80
2018-05-17T16:41:01.806Z,30.50
2018-05-17T16:43:28.054Z,30.40
2018-05-17T16:45:54.289Z,31.10
2018-05-17T16:48:35.539Z,31.10
2018-05-17T16:51:02.449Z,29.40
2018-05-17T16:53:30.140Z,29.40
2018-05-17T16:55:56.353Z,29.40
2018-05-17T16:58:22.810Z,28.80
2018-05-17T17:00:49.022Z,28.40
2018-05-17T17:03:15.259Z,28.20
2018-05-17T17:05:41.474Z,27.70
2018-05-17T17:08:07.687Z,27.90
2018-05-17T17:10:34.290Z,27.10
2018-05-17T17:13:00.524Z,26.20
2018-05-17T17:15:26.798Z,24.90
2018-05-17T17:18:07.961Z,24.00
2018-05-17T17:20:34.203Z,23.30
2018-05-17T17:23:00.411Z,22.50
2018-05-17T17:25:26.651Z,22.20
2018-05-17T17:27:53.346Z,22.30
2018-05-17T17:30:21.035Z,21.70
2018-05-17T17:32:47.823Z,21.60
2018-05-17T17:35:14.670Z,21.30
2018-05-17T17:37:41.568Z,20.60
2018-05-17T17:40:07.805Z,20.20
2018-05-17T17:42:34.009Z,19.90
2018-05-17T17:45:00.469Z,19.60
2018-05-17T17:47:26.794Z,19.50
2018-05-17T17:49:53.154Z,19.40
2018-05-17T17:52:19.326Z,19.10
2018-05-17T17:54:45.873Z,19.00
2018-05-17T17:57:12.834Z,18.80
2018-05-17T17:59:39.261Z,18.80
2018-05-17T18:02:05.498Z,18.80
2018-05-17T18:04:31.715Z,18.70
2018-05-17T18:06:58.701Z,18.70
2018-05-17T18:09:24.933Z,18.60
2018-05-17T18:11:51.207Z,18.50
2018-05-17T18:14:17.428Z,18.40
2018-05-17T18:16:43.876Z,18.30
2018-05-17T18:19:10.305Z,18.10
2018-05-17T18:21:36.555Z,17.90
2018-05-17T18:24:03.564Z,17.40
2018-05-17T18:26:29.803Z,17.40
2018-05-17T18:28:56.313Z,17.30
2018-05-17T18:31:22.549Z,17.10
2018-05-17T18:33:48.850Z,17.10
2018-05-17T18:36:15.035Z,17.00
2018-05-17T18:38:41.237Z,16.90
2018-05-17T18:41:07.497Z,16.80
2018-05-17T18:43:33.718Z,16.70
2018-05-17T18:45:59.938Z,16.70
2018-05-17T18:48:26.358Z,16.60
2018-05-17T18:50:52.590Z,16.40
2018-05-17T18:53:18.802Z,16.40
2018-05-17T18:55:45.021Z,16.20
2018-05-17T18:58:11.267Z,16.00
2018-05-17T19:00:37.751Z,15.90
2018-05-17T19:03:04.030Z,15.80
2018-05-17T19:05:30.262Z,15.70
2018-05-17T19:07:56.493Z,15.80
2018-05-17T19:10:22.715Z,15.70
2018-05-17T19:12:49.706Z,15.50
2018-05-17T19:15:16.697Z,15.30
2018-05-17T19:17:43.683Z,15.20
2018-05-17T19:20:09.918Z,15.10
2018-05-17T19:22:36.153Z,15.10
2018-05-17T19:25:02.403Z,15.00
2018-05-17T19:27:28.659Z,14.90
2018-05-17T19:29:54.875Z,14.80
2018-05-17T19:32:21.223Z,14.80
2018-05-17T19:34:48.181Z,14.70
2018-05-17T19:37:15.191Z,14.60
2018-05-17T19:39:41.482Z,14.50
2018-05-17T19:42:07.701Z,14.50
2018-05-17T19:44:34.670Z,14.30
2018-05-17T19:47:00.890Z,14.30
2018-05-17T19:49:27.146Z,14.30
2018-05-17T19:51:53.346Z,14.20
2018-05-17T19:54:19.597Z,14.10
2018-05-17T19:56:45.833Z,14.00
2018-05-17T19:59:12.133Z,14.10
2018-05-17T20:01:38.582Z,14.00
2018-05-17T20:04:04.814Z,14.00
2018-05-17T20:06:31.041Z,14.00
2018-05-17T20:08:57.466Z,13.90
2018-05-17T20:11:23.736Z,13.80
2018-05-17T20:13:49.953Z,13.80
2018-05-17T20:16:16.209Z,13.60
2018-05-17T20:18:42.466Z,13.60
2018-05-17T20:21:09.538Z,13.50
2018-05-17T20:23:36.361Z,13.50
2018-05-17T20:26:03.448Z,13.40
2018-05-17T20:28:29.709Z,13.40
2018-05-17T20:30:55.918Z,13.40
2018-05-17T20:33:22.137Z,13.40
2018-05-17T20:35:48.377Z,13.30
2018-05-17T20:38:15.660Z,13.30
2018-05-17T20:40:41.990Z,13.30
2018-05-17T20:43:08.497Z,13.30
2018-05-17T20:45:34.734Z,13.10
2018-05-17T20:48:00.939Z,13.10
2018-05-17T20:50:27.917Z,13.00
2018-05-17T20:52:54.258Z,13.00
2018-05-17T20:55:20.502Z,13.00
2018-05-17T20:57:47.013Z,12.90
2018-05-17T21:00:13.422Z,12.80
2018-05-17T21:02:40.391Z,12.60
2018-05-17T21:05:06.642Z,12.60
2018-05-17T21:07:32.857Z,12.50
2018-05-17T21:09:59.101Z,12.50
2018-05-17T21:12:25.318Z,12.50
2018-05-17T21:14:51.799Z,12.50
2018-05-17T21:17:18.014Z,12.50
2018-05-17T21:19:44.258Z,12.40
2018-05-17T21:22:10.462Z,12.40
2018-05-17T21:24:36.695Z,12.30
2018-05-17T21:27:02.950Z,12.30
2018-05-17T21:29:29.183Z,12.30
2018-05-17T21:31:55.409Z,12.30
2018-05-17T21:34:21.910Z,12.20
2018-05-17T21:36:48.121Z,12.10
2018-05-17T21:39:14.594Z,12.10
2018-05-17T21:41:40.805Z,12.00
2018-05-17T21:44:07.025Z,11.90
2018-05-17T21:46:33.294Z,11.90
2018-05-17T21:48:59.518Z,11.80
2018-05-17T21:51:25.750Z,11.70
2018-05-17T21:53:51.964Z,11.60
2018-05-17T21:56:18.383Z,11.60
2018-05-17T21:58:44.594Z,11.60
2018-05-17T22:01:10.848Z,11.60
2018-05-17T22:03:37.061Z,11.60
2018-05-17T22:06:03.310Z,11.60
2018-05-17T22:08:29.711Z,11.50
2018-05-17T22:10:56.661Z,11.50
2018-05-17T22:13:23.630Z,11.40
2018-05-17T22:15:49.879Z,11.40
2018-05-17T22:18:16.141Z,11.30
2018-05-17T22:20:42.385Z,11.20
2018-05-17T22:23:09.681Z,11.30
2018-05-17T22:25:36.159Z,11.30
2018-05-17T22:28:02.412Z,11.30
2018-05-17T22:30:29.546Z,11.20
2018-05-17T22:32:56.753Z,11.20
2018-05-17T22:35:22.961Z,11.20
2018-05-17T22:37:49.941Z,11.10
2018-05-17T22:40:16.190Z,11.10
2018-05-17T22:42:42.453Z,11.00
2018-05-17T22:45:08.690Z,10.90
2018-05-17T22:47:35.711Z,11.00
2018-05-17T22:50:01.966Z,11.00
2018-05-17T22:52:28.237Z,11.00
2018-05-17T22:54:54.615Z,10.90
2018-05-17T22:57:32.922Z,10.80
2018-05-17T22:59:59.135Z,10.80
2018-05-17T23:02:25.613Z,10.80
2018-05-17T23:04:51.853Z,10.80
2018-05-17T23:07:18.867Z,10.60
2018-05-17T23:09:45.106Z,10.50
2018-05-17T23:12:11.578Z,10.60
2018-05-17T23:14:38.542Z,10.60
2018-05-17T23:17:04.768Z,10.60
2018-05-17T23:19:31.011Z,10.60
2018-05-17T23:21:57.246Z,10.50
2018-05-17T23:24:23.493Z,10.50
2018-05-17T23:26:50.258Z,10.40
2018-05-17T23:29:16.526Z,10.40
2018-05-17T23:31:47.897Z,10.20
2018-05-17T23:34:14.430Z,10.30
2018-05-17T23:36:40.645Z,10.30
2018-05-17T23:39:08.013Z,10.30
2018-05-17T23:41:35.370Z,10.30
2018-05-17T23:44:01.629Z,10.30
2018-05-17T23:46:27.839Z,10.30
2018-05-17T23:48:54.082Z,10.30
2018-05-17T23:51:20.306Z,10.20
2018-05-17T23:53:46.671Z,10.20
2018-05-17T23:56:12.923Z,10.20
2018-05-17T23:58:39.425Z,10.20
